Terminal Aerodrome Forecast
Issued by NWS

Home | Current Version | Previous Version | Graphics & Text | Print | Product List | Glossary On
Versions: 1 2 3 4 5 6 7 8 9 10 11 12 13 14 15 16 17 18 19 20
000
FTUS43 KMPX 181100
TAFRWF
TAF
KRWF 181124Z 1812/1912 08006KT 1/2SM FG BKN003
     FM181400 15007KT P6SM SCT006 SCT025
     FM181800 16014KT P6SM SCT045=

USA.gov is the U.S. government's official web portal to all federal, state and local government web resources and services.